sensor_id;sensor_type;location;lat;lon;timestamp;pressure;altitude;pressure_sealevel;temperature;humidity
15817;BME280;8009;50.070;8.232;2023-04-28T00:00:40;99807.78;;;13.17;56.65
15817;BME280;8009;50.070;8.232;2023-04-28T00:03:08;99788.63;;;13.40;53.16
15817;BME280;8009;50.070;8.232;2023-04-28T00:05:36;99797.44;;;13.32;54.91
15817;BME280;8009;50.070;8.232;2023-04-28T00:08:05;99793.31;;;13.38;54.96
15817;BME280;8009;50.070;8.232;2023-04-28T00:10:36;99778.47;;;13.32;55.53
15817;BME280;8009;50.070;8.232;2023-04-28T00:13:05;99777.03;;;13.38;53.29
15817;BME280;8009;50.070;8.232;2023-04-28T00:15:33;99775.59;;;13.24;52.77
15817;BME280;8009;50.070;8.232;2023-04-28T00:18:01;99775.84;;;13.21;54.23
15817;BME280;8009;50.070;8.232;2023-04-28T00:20:30;99775.13;;;12.79;55.26
15817;BME280;8009;50.070;8.232;2023-04-28T00:22:58;99773.13;;;12.81;55.26
15817;BME280;8009;50.070;8.232;2023-04-28T00:25:26;99783.34;;;12.67;55.99
15817;BME280;8009;50.070;8.232;2023-04-28T00:27:57;99773.69;;;12.54;55.76
15817;BME280;8009;50.070;8.232;2023-04-28T00:30:26;99773.34;;;12.68;55.19
15817;BME280;8009;50.070;8.232;2023-04-28T00:32:54;99765.66;;;12.73;54.28
15817;BME280;8009;50.070;8.232;2023-04-28T00:35:22;99773.88;;;12.62;54.73
15817;BME280;8009;50.070;8.232;2023-04-28T00:37:51;99759.63;;;13.00;54.32
15817;BME280;8009;50.070;8.232;2023-04-28T00:40:19;99764.72;;;12.84;54.98
15817;BME280;8009;50.070;8.232;2023-04-28T00:42:47;99761.84;;;12.55;54.89
15817;BME280;8009;50.070;8.232;2023-04-28T00:45:18;99763.38;;;12.68;54.52
15817;BME280;8009;50.070;8.232;2023-04-28T00:47:47;99760.63;;;12.99;55.35
15817;BME280;8009;50.070;8.232;2023-04-28T00:50:15;99756.56;;;13.14;54.01
15817;BME280;8009;50.070;8.232;2023-04-28T00:52:44;99747.72;;;13.22;54.25
15817;BME280;8009;50.070;8.232;2023-04-28T00:55:15;99741.22;;;13.25;52.67
15817;BME280;8009;50.070;8.232;2023-04-28T00:57:44;99735.13;;;13.11;56.20
15817;BME280;8009;50.070;8.232;2023-04-28T01:00:14;99733.44;;;13.20;57.06
15817;BME280;8009;50.070;8.232;2023-04-28T01:02:45;99722.94;;;13.27;55.81
15817;BME280;8009;50.070;8.232;2023-04-28T01:05:14;99724.66;;;12.87;56.14
15817;BME280;8009;50.070;8.232;2023-04-28T01:07:42;99717.06;;;12.81;58.70
15817;BME280;8009;50.070;8.232;2023-04-28T01:10:10;99716.72;;;12.65;59.94
15817;BME280;8009;50.070;8.232;2023-04-28T01:12:39;99710.31;;;12.66;61.96
15817;BME280;8009;50.070;8.232;2023-04-28T01:15:17;99711.97;;;12.27;67.10
15817;BME280;8009;50.070;8.232;2023-04-28T01:17:48;99720.63;;;12.20;67.64
15817;BME280;8009;50.070;8.232;2023-04-28T01:20:16;99718.16;;;11.76;69.07
15817;BME280;8009;50.070;8.232;2023-04-28T01:22:45;99716.00;;;12.32;66.28
15817;BME280;8009;50.070;8.232;2023-04-28T01:25:16;99719.78;;;12.20;69.91
15817;BME280;8009;50.070;8.232;2023-04-28T01:27:44;99722.75;;;12.17;68.92
15817;BME280;8009;50.070;8.232;2023-04-28T01:30:12;99709.50;;;11.82;70.83
15817;BME280;8009;50.070;8.232;2023-04-28T01:32:41;99707.41;;;12.27;67.33
15817;BME280;8009;50.070;8.232;2023-04-28T01:35:09;99706.25;;;12.20;69.72
15817;BME280;8009;50.070;8.232;2023-04-28T01:37:37;99704.00;;;12.25;67.80
15817;BME280;8009;50.070;8.232;2023-04-28T01:40:07;99709.75;;;11.58;70.10
15817;BME280;8009;50.070;8.232;2023-04-28T01:42:38;99710.81;;;11.45;71.51
15817;BME280;8009;50.070;8.232;2023-04-28T01:45:07;99699.84;;;12.00;67.60
15817;BME280;8009;50.070;8.232;2023-04-28T01:47:36;99707.03;;;11.90;70.88
15817;BME280;8009;50.070;8.232;2023-04-28T01:50:05;99711.69;;;11.35;70.91
15817;BME280;8009;50.070;8.232;2023-04-28T01:52:34;99711.03;;;11.75;73.29
15817;BME280;8009;50.070;8.232;2023-04-28T01:55:17;99694.88;;;12.05;72.67
15817;BME280;8009;50.070;8.232;2023-04-28T01:57:48;99700.41;;;12.25;70.80
15817;BME280;8009;50.070;8.232;2023-04-28T02:00:17;99705.34;;;11.57;73.77
15817;BME280;8009;50.070;8.232;2023-04-28T02:02:46;99712.59;;;11.24;75.94
15817;BME280;8009;50.070;8.232;2023-04-28T02:05:14;99715.16;;;11.58;74.37
15817;BME280;8009;50.070;8.232;2023-04-28T02:07:42;99708.56;;;12.04;71.88
15817;BME280;8009;50.070;8.232;2023-04-28T02:10:11;99703.25;;;11.81;74.48
15817;BME280;8009;50.070;8.232;2023-04-28T02:12:40;99711.94;;;11.32;74.11
15817;BME280;8009;50.070;8.232;2023-04-28T02:15:11;99702.00;;;11.64;74.32
15817;BME280;8009;50.070;8.232;2023-04-28T02:17:40;99699.28;;;11.64;76.08
15817;BME280;8009;50.070;8.232;2023-04-28T02:20:09;99709.03;;;11.56;73.65
15817;BME280;8009;50.070;8.232;2023-04-28T02:22:38;99697.28;;;11.66;74.67
15817;BME280;8009;50.070;8.232;2023-04-28T02:25:07;99698.75;;;10.95;78.85
15817;BME280;8009;50.070;8.232;2023-04-28T02:27:36;99696.94;;;10.95;77.19
15817;BME280;8009;50.070;8.232;2023-04-28T02:30:06;99696.69;;;10.87;78.75
15817;BME280;8009;50.070;8.232;2023-04-28T02:35:13;99679.94;;;11.16;77.84
15817;BME280;8009;50.070;8.232;2023-04-28T02:37:41;99677.25;;;11.37;77.65
15817;BME280;8009;50.070;8.232;2023-04-28T02:40:11;99681.19;;;11.12;78.37
15817;BME280;8009;50.070;8.232;2023-04-28T02:42:39;99681.81;;;11.04;79.02
15817;BME280;8009;50.070;8.232;2023-04-28T02:45:08;99676.63;;;11.44;78.22
15817;BME280;8009;50.070;8.232;2023-04-28T02:47:36;99672.84;;;11.36;77.73
15817;BME280;8009;50.070;8.232;2023-04-28T02:50:06;99661.41;;;11.43;78.35
15817;BME280;8009;50.070;8.232;2023-04-28T02:52:38;99658.25;;;11.80;74.84
15817;BME280;8009;50.070;8.232;2023-04-28T02:55:07;99651.47;;;12.07;74.16
15817;BME280;8009;50.070;8.232;2023-04-28T02:57:35;99657.03;;;11.31;77.51
15817;BME280;8009;50.070;8.232;2023-04-28T03:00:05;99655.00;;;11.12;78.38
15817;BME280;8009;50.070;8.232;2023-04-28T03:02:34;99655.16;;;11.64;75.75
15817;BME280;8009;50.070;8.232;2023-04-28T03:05:03;99655.09;;;11.54;75.82
15817;BME280;8009;50.070;8.232;2023-04-28T03:07:31;99652.13;;;11.25;76.69
15817;BME280;8009;50.070;8.232;2023-04-28T03:10:02;99651.56;;;11.42;77.79
15817;BME280;8009;50.070;8.232;2023-04-28T03:12:31;99652.13;;;11.57;78.28
15817;BME280;8009;50.070;8.232;2023-04-28T03:14:59;99650.81;;;11.73;76.54
15817;BME280;8009;50.070;8.232;2023-04-28T03:17:30;99638.59;;;11.78;74.48
15817;BME280;8009;50.070;8.232;2023-04-28T03:19:58;99638.00;;;11.75;75.55
15817;BME280;8009;50.070;8.232;2023-04-28T03:22:27;99632.81;;;12.04;74.01
15817;BME280;8009;50.070;8.232;2023-04-28T03:24:55;99631.03;;;11.93;74.03
15817;BME280;8009;50.070;8.232;2023-04-28T03:27:26;99623.75;;;11.73;76.25
15817;BME280;8009;50.070;8.232;2023-04-28T03:29:55;99624.94;;;12.01;74.44
15817;BME280;8009;50.070;8.232;2023-04-28T03:32:24;99625.63;;;11.72;75.78
15817;BME280;8009;50.070;8.232;2023-04-28T03:34:52;99625.63;;;11.93;75.40
15817;BME280;8009;50.070;8.232;2023-04-28T03:37:20;99625.50;;;12.25;72.23
15817;BME280;8009;50.070;8.232;2023-04-28T03:39:48;99617.69;;;12.01;74.73
15817;BME280;8009;50.070;8.232;2023-04-28T03:42:17;99610.41;;;12.32;73.97
15817;BME280;8009;50.070;8.232;2023-04-28T03:44:48;99608.16;;;12.37;74.44
15817;BME280;8009;50.070;8.232;2023-04-28T03:47:16;99600.78;;;12.49;73.72
15817;BME280;8009;50.070;8.232;2023-04-28T03:49:44;99606.41;;;12.27;73.83
15817;BME280;8009;50.070;8.232;2023-04-28T03:52:13;99607.75;;;12.42;72.82
15817;BME280;8009;50.070;8.232;2023-04-28T03:54:41;99607.66;;;12.53;71.88
15817;BME280;8009;50.070;8.232;2023-04-28T03:57:10;99608.13;;;12.28;74.27
15817;BME280;8009;50.070;8.232;2023-04-28T03:59:39;99602.28;;;12.02;76.74
15817;BME280;8009;50.070;8.232;2023-04-28T04:02:10;99600.09;;;12.16;75.65
15817;BME280;8009;50.070;8.232;2023-04-28T04:04:38;99592.88;;;12.27;74.61
15817;BME280;8009;50.070;8.232;2023-04-28T04:07:07;99593.16;;;12.24;74.62
15817;BME280;8009;50.070;8.232;2023-04-28T04:09:35;99587.19;;;12.30;74.55
15817;BME280;8009;50.070;8.232;2023-04-28T04:12:04;99592.09;;;12.46;75.14
15817;BME280;8009;50.070;8.232;2023-04-28T04:14:33;99593.38;;;12.11;75.60
15817;BME280;8009;50.070;8.232;2023-04-28T04:17:01;99589.22;;;12.37;74.45
15817;BME280;8009;50.070;8.232;2023-04-28T04:19:32;99591.47;;;12.32;75.14
15817;BME280;8009;50.070;8.232;2023-04-28T04:22:00;99585.94;;;12.34;75.07
15817;BME280;8009;50.070;8.232;2023-04-28T04:24:28;99587.38;;;12.48;75.23
15817;BME280;8009;50.070;8.232;2023-04-28T04:26:57;99582.91;;;12.27;75.92
15817;BME280;8009;50.070;8.232;2023-04-28T04:29:25;99579.78;;;12.01;76.44
15817;BME280;8009;50.070;8.232;2023-04-28T04:31:53;99576.38;;;12.30;75.10
15817;BME280;8009;50.070;8.232;2023-04-28T04:34:22;99578.50;;;12.36;76.19
15817;BME280;8009;50.070;8.232;2023-04-28T04:36:52;99578.81;;;12.33;75.81
15817;BME280;8009;50.070;8.232;2023-04-28T04:39:21;99585.28;;;12.11;75.89
15817;BME280;8009;50.070;8.232;2023-04-28T04:41:49;99583.91;;;11.95;78.51
15817;BME280;8009;50.070;8.232;2023-04-28T04:44:17;99586.63;;;12.36;76.63
15817;BME280;8009;50.070;8.232;2023-04-28T04:46:47;99578.50;;;12.36;76.58
15817;BME280;8009;50.070;8.232;2023-04-28T04:49:15;99588.81;;;12.11;76.92
15817;BME280;8009;50.070;8.232;2023-04-28T04:51:43;99591.88;;;12.28;76.46
15817;BME280;8009;50.070;8.232;2023-04-28T04:54:14;99602.13;;;12.24;77.72
15817;BME280;8009;50.070;8.232;2023-04-28T04:56:45;99599.88;;;12.29;77.95
15817;BME280;8009;50.070;8.232;2023-04-28T04:59:13;99608.34;;;12.15;79.82
15817;BME280;8009;50.070;8.232;2023-04-28T05:01:41;99602.94;;;12.15;79.74
15817;BME280;8009;50.070;8.232;2023-04-28T05:04:10;99611.56;;;11.99;79.41
15817;BME280;8009;50.070;8.232;2023-04-28T05:06:39;99599.81;;;12.19;78.35
15817;BME280;8009;50.070;8.232;2023-04-28T05:09:07;99604.66;;;12.16;78.94
15817;BME280;8009;50.070;8.232;2023-04-28T05:11:38;99613.94;;;11.51;82.12
15817;BME280;8009;50.070;8.232;2023-04-28T05:14:06;99612.75;;;11.64;82.26
15817;BME280;8009;50.070;8.232;2023-04-28T05:16:34;99610.47;;;11.28;83.02
15817;BME280;8009;50.070;8.232;2023-04-28T05:19:03;99607.91;;;11.26;85.25
15817;BME280;8009;50.070;8.232;2023-04-28T05:21:31;99606.00;;;11.59;82.52
15817;BME280;8009;50.070;8.232;2023-04-28T05:24:02;99605.97;;;11.91;80.50
15817;BME280;8009;50.070;8.232;2023-04-28T05:26:30;99609.19;;;12.06;80.24
15817;BME280;8009;50.070;8.232;2023-04-28T05:29:01;99599.47;;;12.03;80.17
15817;BME280;8009;50.070;8.232;2023-04-28T05:31:29;99603.38;;;12.20;80.26
15817;BME280;8009;50.070;8.232;2023-04-28T05:33:58;99609.19;;;11.64;82.85
15817;BME280;8009;50.070;8.232;2023-04-28T05:36:26;99610.94;;;11.75;82.23
15817;BME280;8009;50.070;8.232;2023-04-28T05:38:58;99613.66;;;11.75;83.10
15817;BME280;8009;50.070;8.232;2023-04-28T05:41:27;99614.47;;;11.86;82.35
15817;BME280;8009;50.070;8.232;2023-04-28T05:43:56;99608.63;;;12.12;79.98
15817;BME280;8009;50.070;8.232;2023-04-28T05:46:27;99613.69;;;11.95;80.66
15817;BME280;8009;50.070;8.232;2023-04-28T05:48:55;99608.25;;;11.75;81.33
15817;BME280;8009;50.070;8.232;2023-04-28T05:51:23;99604.78;;;11.84;81.22
15817;BME280;8009;50.070;8.232;2023-04-28T05:53:52;99610.13;;;11.53;83.71
15817;BME280;8009;50.070;8.232;2023-04-28T05:56:20;99619.63;;;11.89;80.73
15817;BME280;8009;50.070;8.232;2023-04-28T05:58:48;99613.28;;;12.00;80.50
15817;BME280;8009;50.070;8.232;2023-04-28T06:01:16;99609.09;;;11.75;82.07
15817;BME280;8009;50.070;8.232;2023-04-28T06:03:47;99607.53;;;11.93;80.79
15817;BME280;8009;50.070;8.232;2023-04-28T06:06:18;99606.50;;;11.85;80.84
15817;BME280;8009;50.070;8.232;2023-04-28T06:16:41;99605.75;;;12.04;78.95
15817;BME280;8009;50.070;8.232;2023-04-28T06:19:12;99613.59;;;11.86;79.95
15817;BME280;8009;50.070;8.232;2023-04-28T06:21:43;99612.19;;;11.70;78.84
15817;BME280;8009;50.070;8.232;2023-04-28T06:24:11;99611.81;;;11.96;79.91
15817;BME280;8009;50.070;8.232;2023-04-28T06:26:40;99625.00;;;11.47;80.62
15817;BME280;8009;50.070;8.232;2023-04-28T06:29:08;99627.97;;;11.44;80.52
15817;BME280;8009;50.070;8.232;2023-04-28T06:31:36;99626.50;;;11.82;79.89
15817;BME280;8009;50.070;8.232;2023-04-28T06:34:04;99632.34;;;11.57;80.28
15817;BME280;8009;50.070;8.232;2023-04-28T06:36:35;99625.75;;;11.50;81.66
15817;BME280;8009;50.070;8.232;2023-04-28T06:39:04;99624.81;;;11.81;80.27
15817;BME280;8009;50.070;8.232;2023-04-28T06:41:32;99626.72;;;11.69;80.90
15817;BME280;8009;50.070;8.232;2023-04-28T06:44:03;99631.25;;;11.48;80.95
15817;BME280;8009;50.070;8.232;2023-04-28T06:46:33;99630.00;;;11.31;81.16
15817;BME280;8009;50.070;8.232;2023-04-28T06:49:03;99614.78;;;11.51;80.83
15817;BME280;8009;50.070;8.232;2023-04-28T06:51:31;99605.00;;;11.60;80.85
15817;BME280;8009;50.070;8.232;2023-04-28T06:54:02;99610.56;;;11.58;81.23
15817;BME280;8009;50.070;8.232;2023-04-28T06:56:31;99614.66;;;11.53;80.49
15817;BME280;8009;50.070;8.232;2023-04-28T06:59:00;99604.72;;;11.53;80.87
15817;BME280;8009;50.070;8.232;2023-04-28T07:01:28;99605.00;;;11.60;80.48
15817;BME280;8009;50.070;8.232;2023-04-28T07:03:57;99592.50;;;11.59;81.86
15817;BME280;8009;50.070;8.232;2023-04-28T07:06:25;99596.72;;;11.52;81.40
15817;BME280;8009;50.070;8.232;2023-04-28T07:08:56;99606.41;;;11.33;81.93
15817;BME280;8009;50.070;8.232;2023-04-28T07:11:27;99606.94;;;11.69;81.35
15817;BME280;8009;50.070;8.232;2023-04-28T07:13:57;99598.44;;;11.53;81.46
15817;BME280;8009;50.070;8.232;2023-04-28T07:16:26;99599.50;;;11.61;81.57
15817;BME280;8009;50.070;8.232;2023-04-28T07:18:55;99593.81;;;11.85;80.60
15817;BME280;8009;50.070;8.232;2023-04-28T07:21:24;99597.56;;;11.73;81.77
15817;BME280;8009;50.070;8.232;2023-04-28T07:23:52;99600.41;;;11.71;80.98
15817;BME280;8009;50.070;8.232;2023-04-28T07:26:21;99594.91;;;11.83;81.70
15817;BME280;8009;50.070;8.232;2023-04-28T07:28:52;99599.22;;;12.06;80.56
15817;BME280;8009;50.070;8.232;2023-04-28T07:31:20;99591.13;;;11.85;80.41
15817;BME280;8009;50.070;8.232;2023-04-28T07:33:48;99592.19;;;11.83;80.37
15817;BME280;8009;50.070;8.232;2023-04-28T07:36:17;99586.22;;;12.00;80.67
15817;BME280;8009;50.070;8.232;2023-04-28T07:38:45;99601.41;;;11.91;80.01
15817;BME280;8009;50.070;8.232;2023-04-28T07:41:15;99597.22;;;12.08;79.93
15817;BME280;8009;50.070;8.232;2023-04-28T07:43:43;99599.28;;;12.26;79.22
15817;BME280;8009;50.070;8.232;2023-04-28T07:46:14;99604.81;;;12.24;79.58
15817;BME280;8009;50.070;8.232;2023-04-28T07:48:43;99604.47;;;12.08;78.60
15817;BME280;8009;50.070;8.232;2023-04-28T07:51:12;99602.13;;;11.93;80.36
15817;BME280;8009;50.070;8.232;2023-04-28T07:53:40;99602.84;;;11.95;80.21
15817;BME280;8009;50.070;8.232;2023-04-28T07:56:09;99601.00;;;12.27;80.06
15817;BME280;8009;50.070;8.232;2023-04-28T07:58:37;99605.34;;;12.49;79.53
15817;BME280;8009;50.070;8.232;2023-04-28T08:01:05;99612.75;;;12.06;79.64
15817;BME280;8009;50.070;8.232;2023-04-28T08:03:36;99622.66;;;12.27;78.94
15817;BME280;8009;50.070;8.232;2023-04-28T08:06:06;99625.88;;;12.20;79.81
15817;BME280;8009;50.070;8.232;2023-04-28T08:08:34;99618.53;;;12.32;78.13
15817;BME280;8009;50.070;8.232;2023-04-28T08:11:03;99620.34;;;12.22;80.34
15817;BME280;8009;50.070;8.232;2023-04-28T08:13:32;99616.31;;;12.07;79.52
15817;BME280;8009;50.070;8.232;2023-04-28T08:16:00;99618.06;;;11.87;79.66
15817;BME280;8009;50.070;8.232;2023-04-28T08:18:28;99619.69;;;11.99;78.91
15817;BME280;8009;50.070;8.232;2023-04-28T08:20:59;99625.63;;;12.24;78.94
15817;BME280;8009;50.070;8.232;2023-04-28T08:23:27;99623.16;;;12.11;78.53
15817;BME280;8009;50.070;8.232;2023-04-28T08:25:56;99626.38;;;12.05;78.80
15817;BME280;8009;50.070;8.232;2023-04-28T08:28:24;99619.69;;;11.99;80.11
15817;BME280;8009;50.070;8.232;2023-04-28T08:30:54;99617.81;;;12.00;80.09
15817;BME280;8009;50.070;8.232;2023-04-28T08:33:23;99616.72;;;12.33;78.89
15817;BME280;8009;50.070;8.232;2023-04-28T08:35:51;99622.34;;;12.60;78.13
15817;BME280;8009;50.070;8.232;2023-04-28T08:38:22;99620.91;;;12.56;78.93
15817;BME280;8009;50.070;8.232;2023-04-28T08:40:50;99622.81;;;12.35;78.78
15817;BME280;8009;50.070;8.232;2023-04-28T08:43:19;99630.78;;;12.27;79.25
15817;BME280;8009;50.070;8.232;2023-04-28T08:45:48;99627.84;;;12.09;78.60
15817;BME280;8009;50.070;8.232;2023-04-28T08:48:18;99619.78;;;12.28;79.09
15817;BME280;8009;50.070;8.232;2023-04-28T08:50:49;99622.78;;;12.65;77.02
15817;BME280;8009;50.070;8.232;2023-04-28T08:53:23;99626.53;;;12.84;78.30
15817;BME280;8009;50.070;8.232;2023-04-28T08:55:54;99625.16;;;12.49;79.52
15817;BME280;8009;50.070;8.232;2023-04-28T08:58:24;99621.88;;;12.46;81.18
15817;BME280;8009;50.070;8.232;2023-04-28T09:00:53;99621.69;;;12.87;79.46
15817;BME280;8009;50.070;8.232;2023-04-28T09:03:21;99624.84;;;13.02;79.99
15817;BME280;8009;50.070;8.232;2023-04-28T09:05:49;99621.03;;;12.55;79.91
15817;BME280;8009;50.070;8.232;2023-04-28T09:08:18;99629.47;;;12.52;81.20
15817;BME280;8009;50.070;8.232;2023-04-28T09:11:04;99624.03;;;12.52;80.64
15817;BME280;8009;50.070;8.232;2023-04-28T09:13:34;99618.84;;;12.89;80.80
15817;BME280;8009;50.070;8.232;2023-04-28T09:16:03;99616.63;;;13.33;79.18
15817;BME280;8009;50.070;8.232;2023-04-28T09:18:32;99617.75;;;13.30;77.33
15817;BME280;8009;50.070;8.232;2023-04-28T09:21:05;99611.22;;;13.33;77.03
15817;BME280;8009;50.070;8.232;2023-04-28T09:23:34;99622.59;;;13.46;76.22
15817;BME280;8009;50.070;8.232;2023-04-28T09:26:06;99630.03;;;13.54;77.64
15817;BME280;8009;50.070;8.232;2023-04-28T09:28:35;99621.59;;;13.67;77.11
15817;BME280;8009;50.070;8.232;2023-04-28T09:31:03;99622.59;;;13.75;75.41
15817;BME280;8009;50.070;8.232;2023-04-28T09:33:32;99621.00;;;13.82;76.40
15817;BME280;8009;50.070;8.232;2023-04-28T09:36:00;99619.94;;;14.12;75.05
15817;BME280;8009;50.070;8.232;2023-04-28T09:38:28;99628.25;;;14.01;75.73
15817;BME280;8009;50.070;8.232;2023-04-28T09:40:58;99629.59;;;13.78;76.78
15817;BME280;8009;50.070;8.232;2023-04-28T09:43:31;99629.19;;;13.63;77.58
15817;BME280;8009;50.070;8.232;2023-04-28T09:46:00;99628.88;;;13.76;76.70
15817;BME280;8009;50.070;8.232;2023-04-28T09:48:30;99616.94;;;14.06;76.44
15817;BME280;8009;50.070;8.232;2023-04-28T09:51:00;99611.22;;;13.99;76.78
15817;BME280;8009;50.070;8.232;2023-04-28T09:53:31;99611.69;;;13.95;75.41
15817;BME280;8009;50.070;8.232;2023-04-28T09:56:01;99600.78;;;14.42;75.32
15817;BME280;8009;50.070;8.232;2023-04-28T09:58:33;99619.09;;;14.39;75.12
15817;BME280;8009;50.070;8.232;2023-04-28T10:01:05;99626.59;;;14.18;75.51
15817;BME280;8009;50.070;8.232;2023-04-28T10:03:36;99622.47;;;14.14;74.47
15817;BME280;8009;50.070;8.232;2023-04-28T10:06:06;99628.56;;;14.26;74.36
15817;BME280;8009;50.070;8.232;2023-04-28T10:08:34;99628.66;;;14.44;73.79
15817;BME280;8009;50.070;8.232;2023-04-28T10:11:04;99620.63;;;14.52;75.86
15817;BME280;8009;50.070;8.232;2023-04-28T10:13:36;99611.53;;;14.71;74.44
15817;BME280;8009;50.070;8.232;2023-04-28T10:16:06;99604.03;;;14.82;73.78
15817;BME280;8009;50.070;8.232;2023-04-28T10:18:35;99600.91;;;14.77;72.17
15817;BME280;8009;50.070;8.232;2023-04-28T10:21:06;99597.44;;;15.03;72.44
15817;BME280;8009;50.070;8.232;2023-04-28T10:23:46;99597.91;;;14.98;73.38
15817;BME280;8009;50.070;8.232;2023-04-28T10:26:18;99592.22;;;14.74;73.72
15817;BME280;8009;50.070;8.232;2023-04-28T10:28:50;99596.75;;;14.18;76.39
15817;BME280;8009;50.070;8.232;2023-04-28T10:31:20;99586.06;;;14.72;76.03
15817;BME280;8009;50.070;8.232;2023-04-28T10:33:49;99588.66;;;15.09;76.64
15817;BME280;8009;50.070;8.232;2023-04-28T10:36:47;99595.06;;;14.72;74.72
15817;BME280;8009;50.070;8.232;2023-04-28T10:39:19;99599.63;;;14.54;76.90
15817;BME280;8009;50.070;8.232;2023-04-28T10:41:47;99602.53;;;14.88;74.62
15817;BME280;8009;50.070;8.232;2023-04-28T10:44:42;99600.19;;;14.75;74.38
15817;BME280;8009;50.070;8.232;2023-04-28T10:47:11;99590.59;;;14.99;73.98
15817;BME280;8009;50.070;8.232;2023-04-28T10:50:04;99593.16;;;15.18;73.54
15817;BME280;8009;50.070;8.232;2023-04-28T10:52:48;99599.72;;;15.07;74.44
15817;BME280;8009;50.070;8.232;2023-04-28T10:55:27;99598.66;;;14.91;75.48
15817;BME280;8009;50.070;8.232;2023-04-28T11:01:24;99600.66;;;14.71;76.75
15817;BME280;8009;50.070;8.232;2023-04-28T11:04:00;99588.59;;;15.01;75.25
15817;BME280;8009;50.070;8.232;2023-04-28T11:06:41;99588.72;;;14.81;75.55
15817;BME280;8009;50.070;8.232;2023-04-28T11:12:17;99577.94;;;15.25;73.92
15817;BME280;8009;50.070;8.232;2023-04-28T11:14:46;99581.22;;;15.11;76.54
15817;BME280;8009;50.070;8.232;2023-04-28T11:17:37;99576.53;;;14.85;75.61
15817;BME280;8009;50.070;8.232;2023-04-28T11:20:11;99571.88;;;15.14;75.35
15817;BME280;8009;50.070;8.232;2023-04-28T11:22:40;99577.13;;;14.61;77.48
15817;BME280;8009;50.070;8.232;2023-04-28T11:25:09;99570.97;;;15.05;76.27
15817;BME280;8009;50.070;8.232;2023-04-28T11:27:37;99570.19;;;15.13;76.01
15817;BME280;8009;50.070;8.232;2023-04-28T11:30:19;99560.59;;;15.44;75.38
15817;BME280;8009;50.070;8.232;2023-04-28T11:32:52;99559.78;;;15.08;75.91
15817;BME280;8009;50.070;8.232;2023-04-28T11:35:20;99568.75;;;15.44;74.57
15817;BME280;8009;50.070;8.232;2023-04-28T11:38:00;99558.03;;;15.43;74.83
15817;BME280;8009;50.070;8.232;2023-04-28T11:40:31;99562.31;;;15.27;74.95
15817;BME280;8009;50.070;8.232;2023-04-28T11:42:59;99560.22;;;15.21;75.88
15817;BME280;8009;50.070;8.232;2023-04-28T11:45:28;99561.31;;;15.28;75.66
15817;BME280;8009;50.070;8.232;2023-04-28T11:48:00;99565.94;;;15.54;74.56
15817;BME280;8009;50.070;8.232;2023-04-28T11:50:36;99557.19;;;15.24;75.44
15817;BME280;8009;50.070;8.232;2023-04-28T11:53:05;99563.25;;;15.36;75.10
15817;BME280;8009;50.070;8.232;2023-04-28T11:55:34;99553.63;;;15.42;75.55
15817;BME280;8009;50.070;8.232;2023-04-28T11:58:18;99557.56;;;15.65;74.68
15817;BME280;8009;50.070;8.232;2023-04-28T12:01:05;99551.25;;;16.25;74.17
15817;BME280;8009;50.070;8.232;2023-04-28T12:03:43;99559.03;;;16.12;73.87
15817;BME280;8009;50.070;8.232;2023-04-28T12:06:15;99546.59;;;16.60;71.53
15817;BME280;8009;50.070;8.232;2023-04-28T12:08:44;99539.56;;;16.91;71.00
15817;BME280;8009;50.070;8.232;2023-04-28T12:11:13;99542.81;;;17.03;68.88
15817;BME280;8009;50.070;8.232;2023-04-28T12:13:42;99553.75;;;17.11;69.94
15817;BME280;8009;50.070;8.232;2023-04-28T12:16:11;99539.19;;;16.27;71.36
15817;BME280;8009;50.070;8.232;2023-04-28T12:18:59;99538.53;;;16.76;71.32
15817;BME280;8009;50.070;8.232;2023-04-28T12:21:32;99532.22;;;16.75;72.25
15817;BME280;8009;50.070;8.232;2023-04-28T12:24:00;99526.81;;;17.49;70.01
15817;BME280;8009;50.070;8.232;2023-04-28T12:26:40;99533.28;;;17.40;67.89
15817;BME280;8009;50.070;8.232;2023-04-28T12:29:40;99536.19;;;17.30;70.18
15817;BME280;8009;50.070;8.232;2023-04-28T12:32:10;99545.03;;;17.08;70.53
15817;BME280;8009;50.070;8.232;2023-04-28T12:34:44;99545.03;;;16.91;72.17
15817;BME280;8009;50.070;8.232;2023-04-28T12:37:14;99535.00;;;17.41;70.89
15817;BME280;8009;50.070;8.232;2023-04-28T12:39:49;99528.53;;;17.17;70.86
15817;BME280;8009;50.070;8.232;2023-04-28T12:42:17;99525.97;;;17.40;71.16
15817;BME280;8009;50.070;8.232;2023-04-28T12:44:47;99529.53;;;17.08;70.87
15817;BME280;8009;50.070;8.232;2023-04-28T12:47:15;99534.28;;;17.47;70.69
15817;BME280;8009;50.070;8.232;2023-04-28T12:49:47;99524.25;;;17.39;71.05
15817;BME280;8009;50.070;8.232;2023-04-28T12:52:17;99533.47;;;17.14;71.29
15817;BME280;8009;50.070;8.232;2023-04-28T12:54:46;99527.50;;;17.26;70.42
15817;BME280;8009;50.070;8.232;2023-04-28T12:57:15;99517.09;;;17.22;71.29
15817;BME280;8009;50.070;8.232;2023-04-28T12:59:44;99511.78;;;17.20;71.15
15817;BME280;8009;50.070;8.232;2023-04-28T13:02:12;99523.06;;;17.25;71.23
15817;BME280;8009;50.070;8.232;2023-04-28T13:04:41;99521.16;;;16.85;71.88
15817;BME280;8009;50.070;8.232;2023-04-28T13:07:13;99518.50;;;16.67;73.05
15817;BME280;8009;50.070;8.232;2023-04-28T13:09:42;99516.66;;;16.68;73.30
15817;BME280;8009;50.070;8.232;2023-04-28T13:12:11;99528.13;;;16.79;71.74
15817;BME280;8009;50.070;8.232;2023-04-28T13:14:40;99528.19;;;16.45;69.93
15817;BME280;8009;50.070;8.232;2023-04-28T13:17:08;99521.19;;;16.43;73.82
15817;BME280;8009;50.070;8.232;2023-04-28T13:19:37;99520.03;;;16.53;71.24
15817;BME280;8009;50.070;8.232;2023-04-28T13:22:05;99521.06;;;16.52;74.30
15817;BME280;8009;50.070;8.232;2023-04-28T13:24:36;99519.03;;;16.12;77.08
15817;BME280;8009;50.070;8.232;2023-04-28T13:27:04;99507.19;;;16.29;77.33
15817;BME280;8009;50.070;8.232;2023-04-28T13:29:33;99503.28;;;15.98;78.76
15817;BME280;8009;50.070;8.232;2023-04-28T13:32:02;99514.09;;;16.16;78.59
15817;BME280;8009;50.070;8.232;2023-04-28T13:34:30;99517.19;;;15.87;79.79
15817;BME280;8009;50.070;8.232;2023-04-28T13:36:59;99524.19;;;15.89;79.67
15817;BME280;8009;50.070;8.232;2023-04-28T13:39:27;99511.41;;;15.64;82.03
15817;BME280;8009;50.070;8.232;2023-04-28T13:42:01;99495.78;;;15.92;81.37